»·PEaware :: N2822D KRNM-KVCB

N2822D :: KRNM-KVCB

FLIGHT INFORMATION

Flight Status: Arrived
Operator: Privately registered:
United States
More flights under this callsign
Pilot: Keith B. (30325)
Aircraft: BEECH AIRCRAFT BARON
(BE58)
More flights by this aircraft type
Origin: KRNM Ramona
United States
Destination: KVCB Nut Tree
United States
More flights between these airports :: More routes between these airports
Route: KRNM OCN VPOCN VPSMP SLI DODGR JEFFY GMN AVE PXN RBLEW SAC KEDU KVCB
File this flight plan on PilotEdge
Remarks:
Altitude:
(Current/Filed)
10,500ft
Speed:
(Current/Filed)
170kts
Departed: 07-Nov-20 12:49 PM
Arrived: 07-Nov-20 03:14 PM
Distance/Time
Traveled:
404nm/2:24
Distance/Time
To Go:
Arrived

Flight Plot

Page will automatically refresh every two minutes.

Flight plan parsing failed; only flown route is shown


Map Options




Map Legend


Flown Route
Filed Route
Departure Airport
Arrival Airport
Navaid (VOR, NDB)
Fix

Horizontal Profiles

Position Reports

Time Latitude Longitude Heading Altitude Ground
Speed
07-Nov-20 12:36 33.037195 -116.910145 187 1395ft 0kts
07-Nov-20 12:37 33.037195 -116.910145 187 1395ft 0kts
07-Nov-20 12:38 33.037195 -116.910145 187 1395ft 0kts
07-Nov-20 12:39 33.037195 -116.910145 187 1395ft 0kts
07-Nov-20 12:40 33.037195 -116.910145 187 1395ft 0kts
07-Nov-20 12:41 33.037195 -116.910145 187 1395ft 0kts
07-Nov-20 12:42 33.037195 -116.910145 187 1395ft 0kts
07-Nov-20 12:43 33.037288 -116.909070 46 1396ft 11kts
07-Nov-20 12:44 33.037157 -116.908088 64 1394ft 0kts
07-Nov-20 12:45 33.037157 -116.908088 64 1394ft 0kts
07-Nov-20 12:46 33.037392 -116.907414 9 1396ft 0kts
07-Nov-20 12:47 33.037813 -116.907373 344 1397ft 12kts
07-Nov-20 12:48 33.044460 -116.933526 298 2367ft 104kts
07-Nov-20 12:49 33.060602 -116.967876 291 3605ft 126kts
07-Nov-20 12:50 33.075312 -117.007579 284 4519ft 146kts
07-Nov-20 12:51 33.093827 -117.057183 291 4536ft 173kts
07-Nov-20 12:52 33.115074 -117.109310 292 4532ft 176kts
07-Nov-20 12:53 33.136524 -117.161914 292 4528ft 177kts
07-Nov-20 12:54 33.158048 -117.214891 292 4526ft 180kts
07-Nov-20 12:55 33.180037 -117.269311 291 4519ft 183kts
07-Nov-20 12:56 33.202213 -117.324062 292 4515ft 183kts
07-Nov-20 12:57 33.224423 -117.379001 292 4502ft 183kts
07-Nov-20 12:58 33.244417 -117.434741 277 4494ft 181kts
07-Nov-20 12:59 33.269263 -117.486330 313 4601ft 185kts
07-Nov-20 13:00 33.305929 -117.528035 310 4904ft 180kts
07-Nov-20 13:01 33.341535 -117.570236 310 5191ft 180kts
07-Nov-20 13:03 33.377226 -117.612532 310 5478ft 179kts
07-Nov-20 13:04 33.414061 -117.651549 311 6004ft 174kts
07-Nov-20 13:05 33.448541 -117.689031 311 6821ft 164kts
07-Nov-20 13:06 33.480908 -117.724233 310 7900ft 152kts
07-Nov-20 13:07 33.511267 -117.757301 309 8957ft 143kts
07-Nov-20 13:08 33.539697 -117.788277 306 9991ft 132kts
07-Nov-20 13:09 33.567516 -117.818835 307 10512ft 154kts
07-Nov-20 13:10 33.602302 -117.856649 309 10504ft 178kts
07-Nov-20 13:11 33.639476 -117.897244 309 10499ft 182kts
07-Nov-20 13:12 33.677100 -117.938421 309 10494ft 183kts
07-Nov-20 13:13 33.714740 -117.979688 309 10479ft 183kts
07-Nov-20 13:14 33.752334 -118.020921 309 10473ft 183kts
07-Nov-20 13:15 33.790917 -118.062339 320 10471ft 194kts
07-Nov-20 13:16 33.841579 -118.088959 326 10461ft 198kts
07-Nov-20 13:17 33.890885 -118.117450 326 10447ft 199kts
07-Nov-20 13:18 33.940482 -118.145864 326 10447ft 199kts
07-Nov-20 13:18 33.982326 -118.169103 326 10439ft 199kts
07-Nov-20 13:20 34.040906 -118.201849 327 10423ft 200kts
07-Nov-20 13:21 34.090677 -118.230236 326 10421ft 199kts
07-Nov-20 13:21 34.129168 -118.253679 324 10478ft 195kts
07-Nov-20 13:23 34.185372 -118.287057 338 10479ft 203kts
07-Nov-20 13:23 34.228843 -118.306110 326 10462ft 198kts
07-Nov-20 13:24 34.278737 -118.334527 327 10457ft 198kts
07-Nov-20 13:25 34.327007 -118.361687 328 10463ft 197kts
07-Nov-20 13:26 34.376775 -118.389724 328 10464ft 197kts
07-Nov-20 13:27 34.426628 -118.417869 328 10459ft 197kts
07-Nov-20 13:28 34.476345 -118.445964 328 10450ft 197kts
07-Nov-20 13:29 34.526018 -118.473877 329 10434ft 197kts
07-Nov-20 13:30 34.575630 -118.502003 329 10433ft 196kts
07-Nov-20 13:31 34.625238 -118.530150 329 10409ft 197kts
07-Nov-20 13:32 34.674626 -118.558461 330 10402ft 196kts
07-Nov-20 13:33 34.723906 -118.586475 330 10399ft 195kts
07-Nov-20 13:34 34.758988 -118.629809 278 10385ft 183kts
07-Nov-20 13:35 34.767228 -118.690244 282 10455ft 182kts
07-Nov-20 13:36 34.780321 -118.750746 282 10448ft 184kts
07-Nov-20 13:37 34.793243 -118.811287 282 10434ft 185kts
07-Nov-20 13:38 34.808120 -118.870823 299 10439ft 186kts
07-Nov-20 13:39 34.845013 -118.916068 310 10437ft 188kts
07-Nov-20 13:40 34.880562 -118.962598 309 10450ft 188kts
07-Nov-20 13:41 34.916239 -119.009262 310 10457ft 188kts
07-Nov-20 13:42 34.951839 -119.055926 310 10465ft 188kts
07-Nov-20 13:43 34.987483 -119.102689 310 10455ft 188kts
07-Nov-20 13:44 35.023057 -119.149403 310 10453ft 188kts
07-Nov-20 13:45 35.058680 -119.196288 310 10450ft 188kts
07-Nov-20 13:46 35.094436 -119.243369 310 10425ft 189kts
07-Nov-20 13:47 35.128275 -119.288037 311 10481ft 187kts
07-Nov-20 13:48 35.164309 -119.335607 311 10476ft 189kts
07-Nov-20 13:49 35.199899 -119.382713 311 10470ft 189kts
07-Nov-20 13:50 35.235588 -119.429969 311 10467ft 189kts
07-Nov-20 13:51 35.271159 -119.477175 311 10459ft 189kts
07-Nov-20 13:52 35.306824 -119.524541 312 10477ft 189kts
07-Nov-20 13:53 35.342441 -119.571912 312 10470ft 190kts
07-Nov-20 13:54 35.378332 -119.619864 312 10477ft 190kts
07-Nov-20 13:55 35.414100 -119.667420 312 10509ft 189kts
07-Nov-20 13:56 35.449903 -119.715272 312 10511ft 191kts
07-Nov-20 13:57 35.485827 -119.763302 312 10505ft 191kts
07-Nov-20 13:58 35.521842 -119.811583 312 10501ft 192kts
07-Nov-20 13:59 35.558109 -119.860206 312 10485ft 193kts
07-Nov-20 14:00 35.594226 -119.908755 312 10482ft 192kts
07-Nov-20 14:01 35.630093 -119.956987 313 10494ft 192kts
07-Nov-20 14:02 35.670952 -119.998940 333 10490ft 193kts
07-Nov-20 14:03 35.717644 -120.031721 329 10481ft 193kts
07-Nov-20 14:04 35.763660 -120.065790 329 10471ft 193kts
07-Nov-20 14:05 35.809557 -120.099759 329 10465ft 193kts
07-Nov-20 14:06 35.855437 -120.133711 329 10457ft 192kts
07-Nov-20 14:07 35.901430 -120.167849 329 10446ft 193kts
07-Nov-20 14:08 35.947306 -120.201931 329 10441ft 193kts
07-Nov-20 14:09 35.993097 -120.236003 329 10436ft 192kts
07-Nov-20 14:10 36.038922 -120.270124 329 10430ft 192kts
07-Nov-20 14:11 36.084942 -120.304055 329 10428ft 193kts
07-Nov-20 14:12 36.130555 -120.338157 329 10497ft 191kts
07-Nov-20 14:13 36.176212 -120.372285 329 10494ft 192kts
07-Nov-20 14:14 36.221866 -120.406493 329 10488ft 192kts
07-Nov-20 14:15 36.267549 -120.440740 329 10483ft 192kts
07-Nov-20 14:16 36.313356 -120.475187 329 10479ft 193kts
07-Nov-20 14:17 36.359036 -120.509790 329 10473ft 192kts
07-Nov-20 14:18 36.404809 -120.544289 329 10469ft 192kts
07-Nov-20 14:19 36.450357 -120.578626 329 10466ft 191kts
07-Nov-20 14:20 36.495982 -120.613092 329 10461ft 192kts
07-Nov-20 14:21 36.541518 -120.647532 329 10446ft 192kts
07-Nov-20 14:22 36.586173 -120.681342 328 10470ft 191kts
07-Nov-20 14:23 36.631920 -120.716033 329 10458ft 191kts
07-Nov-20 14:24 36.677149 -120.750407 328 10450ft 190kts
07-Nov-20 14:25 36.722580 -120.784735 332 10452ft 190kts
07-Nov-20 14:26 36.770603 -120.812917 333 10446ft 190kts
07-Nov-20 14:27 36.818189 -120.841884 333 10446ft 190kts
07-Nov-20 14:28 36.865788 -120.870919 334 10449ft 190kts
07-Nov-20 14:29 36.913379 -120.899897 334 10443ft 190kts
07-Nov-20 14:30 36.960889 -120.928932 334 10447ft 190kts
07-Nov-20 14:31 37.008002 -120.958381 334 10432ft 190kts
07-Nov-20 14:32 37.056047 -120.987765 334 10429ft 191kts
07-Nov-20 14:33 37.103548 -121.016868 334 10443ft 189kts
07-Nov-20 14:34 37.150512 -121.045752 334 10489ft 191kts
07-Nov-20 14:35 37.198237 -121.075110 334 10484ft 192kts
07-Nov-20 14:36 37.246211 -121.104667 334 10472ft 192kts
07-Nov-20 14:37 37.294244 -121.134282 334 10457ft 192kts
07-Nov-20 14:38 37.340930 -121.163120 334 10454ft 192kts
07-Nov-20 14:39 37.383381 -121.189337 334 10450ft 192kts
07-Nov-20 14:40 37.438149 -121.223234 334 10443ft 193kts
07-Nov-20 14:41 37.486226 -121.253107 334 10438ft 192kts
07-Nov-20 14:42 37.534398 -121.281950 334 10434ft 192kts
07-Nov-20 14:43 37.581790 -121.311472 334 10430ft 191kts
07-Nov-20 14:44 37.630045 -121.341549 334 10433ft 192kts
07-Nov-20 14:45 37.677808 -121.371371 334 10432ft 192kts
07-Nov-20 14:46 37.725677 -121.401248 334 10421ft 192kts
07-Nov-20 14:47 37.773689 -121.431299 334 10418ft 192kts
07-Nov-20 14:48 37.821596 -121.461282 334 10415ft 192kts
07-Nov-20 14:49 37.869510 -121.491374 334 10422ft 192kts
07-Nov-20 14:50 37.918706 -121.516056 352 10360ft 196kts
07-Nov-20 14:51 37.973029 -121.528094 348 9584ft 196kts
07-Nov-20 14:52 38.026215 -121.541781 348 8776ft 196kts
07-Nov-20 14:53 38.079755 -121.555559 348 7934ft 197kts
07-Nov-20 14:54 38.133003 -121.569284 348 7369ft 188kts
07-Nov-20 14:55 38.182471 -121.582135 348 7008ft 184kts
07-Nov-20 14:56 38.234425 -121.582150 9 6645ft 193kts
07-Nov-20 14:57 38.287078 -121.573959 5 6514ft 185kts
07-Nov-20 14:59 38.339202 -121.567036 6 6186ft 195kts
07-Nov-20 15:00 38.390752 -121.559632 5 5813ft 197kts
07-Nov-20 15:01 38.442922 -121.558069 339 5383ft 200kts
07-Nov-20 15:02 38.470429 -121.617851 284 4714ft 210kts
07-Nov-20 15:03 38.492691 -121.683458 297 4124ft 194kts
07-Nov-20 15:04 38.515673 -121.744803 296 3713ft 190kts
07-Nov-20 15:05 38.524546 -121.809571 267 3303ft 191kts
07-Nov-20 15:06 38.520950 -121.877469 266 2873ft 191kts
07-Nov-20 15:07 38.507636 -121.941898 232 2412ft 192kts
07-Nov-20 15:08 38.467544 -121.985087 188 1822ft 194kts
07-Nov-20 15:09 38.420342 -121.968535 162 1173ft 162kts
07-Nov-20 15:10 38.383763 -121.976254 212 882ft 124kts
07-Nov-20 15:11 38.355366 -122.004891 176 952ft 114kts
07-Nov-20 15:12 38.356911 -121.979163 34 548ft 111kts
07-Nov-20 15:13 38.378089 -121.961268 32 115ft 42kts
07-Nov-20 15:14 38.379815 -121.958869 213 118ft 10kts
07-Nov-20 15:15 38.375818 -121.962252 213 114ft 18kts
07-Nov-20 15:16 38.375434 -121.961329 33 111ft 0kts
07-Nov-20 15:16 38.375434 -121.961329 33 111ft 0kts
07-Nov-20 15:17 38.375434 -121.961329 33 111ft 0kts
07-Nov-20 15:18 38.375434 -121.961329 33 111ft 0kts
07-Nov-20 15:19 38.375434 -121.961329 33 111ft 0kts
07-Nov-20 15:20 38.375434 -121.961329 33 111ft 0kts

Navigation Log

Ident Type
Flight plan parsing failed, navigation log unavailable